Latest Weather Observations for Burnie Port

IDT60801

Issued at 6:02 pm EDT Thursday 23 February 2017 (issued every 30 minutes, with the page automatically refreshed every 10 minutes)

About weather observations | Map of weather stations | Latest weather observations for TAS | Other Formats
Station Details ID: 091344 Name: BURNIE NTC AWS Lat: -41.05 Lon: 145.91 Height: 0.0 m
Data from the previous 72 hours. | See also: Recent months for locations in Tasmania
Date/Time
EDT
Temp
°C
App
Temp
°C
Dew
Point
°C
Rel
Hum
%
Delta-T
°C
Wind Press
QNH
hPa
Press
MSL
hPa
Rain since
9am
mm
Dir  Spd
km/h
Gust
km/h
Spd
kts
Gust
kts
23/05:30pm - - - - - WNW 17 28 9 15 1014.5 1014.5 -
23/05:00pm - - - - - W 17 26 9 14 1014.3 1014.3 -
23/04:30pm - - - - - W 19 32 10 17 1014.1 1014.1 -
23/04:00pm - - - - - W 19 32 10 17 1014.0 1014.0 -
23/03:30pm - - - - - NW 20 32 11 17 1013.8 1013.8 -
23/03:00pm - - - - - W 19 32 10 17 1013.9 1013.9 -
23/02:30pm - - - - - W 15 26 8 14 1013.7 1013.7 -
23/02:00pm - - - - - NW 26 37 14 20 1013.9 1013.9 -
23/01:30pm - - - - - NW 26 37 14 20 1014.0 1014.0 -
23/01:00pm - - - - - NW 22 28 12 15 1014.0 1014.0 -
23/12:30pm - - - - - NW 24 35 13 19 1013.9 1013.9 -
23/12:00pm - - - - - NNW 33 39 18 21 1013.7 1013.7 -
23/11:30am - - - - - NNW 26 33 14 18 1013.5 1013.5 -
23/11:00am - - - - - NNW 26 32 14 17 1013.4 1013.4 -
23/10:30am - - - - - NW 19 24 10 13 1013.4 1013.4 -
23/10:00am - - - - - WNW 19 32 10 17 1013.1 1013.1 -
23/09:30am - - - - - WNW 19 30 10 16 1012.6 1012.6 -
23/09:00am - - - - - NW 28 33 15 18 1012.3 1012.3 -
23/08:30am - - - - - NW 20 26 11 14 1012.0 1012.0 -
23/08:00am - - - - - NW 17 20 9 11 1011.5 1011.5 -
23/07:30am - - - - - WNW 13 20 7 11 1011.2 1011.2 -
23/07:00am - - - - - WNW 11 19 6 10 1010.8 1010.8 -
23/06:30am - - - - - WNW 13 22 7 12 1010.2 1010.2 -
23/06:00am - - - - - WNW 11 19 6 10 1009.8 1009.8 -
23/05:30am - - - - - WNW 9 15 5 8 1009.5 1009.5 -
23/05:00am - - - - - NW 11 13 6 7 1009.3 1009.3 -
23/04:30am - - - - - WNW 9 15 5 8 1008.9 1008.9 -
23/04:00am - - - - - WNW 9 17 5 9 1008.9 1008.9 -
23/03:30am - - - - - WNW 6 9 3 5 1008.7 1008.7 -
23/03:00am - - - - - ESE 4 6 2 3 1008.5 1008.5 -
23/02:30am - - - - - ESE 19 24 10 13 1008.2 1008.2 -
23/02:00am - - - - - ESE 19 22 10 12 1008.4 1008.4 -
23/01:30am - - - - - ESE 22 28 12 15 1008.4 1008.4 -
23/01:00am - - - - - ESE 24 37 13 20 1009.1 1009.1 -
23/12:55am - - - - - ESE 22 37 12 20 1009.1 1009.1 -
23/12:30am - - - - - E 7 11 4 6 1010.5 1010.5 -
23/12:00am - - - - - ESE 26 32 14 17 1009.3 1009.3 -
 
Date/Time
EDT
Temp
°C
App
Temp
°C
Dew
Point
°C
Rel
Hum
%
Delta-T
°C
Wind Press
QNH
hPa
Press
MSL
hPa
Rain since
9am
mm
Dir  Spd
km/h
Gust
km/h
Spd
kts
Gust
kts
22/11:30pm - - - - - ESE 32 39 17 21 1009.2 1009.2 -
22/11:00pm - - - - - ESE 28 35 15 19 1009.4 1009.4 -
22/10:30pm - - - - - ESE 26 32 14 17 1009.6 1009.6 -
22/10:00pm - - - - - SE 28 37 15 20 1010.2 1010.2 -
22/09:30pm - - - - - SE 30 37 16 20 1010.5 1010.5 -
22/09:00pm - - - - - SE 28 33 15 18 1010.5 1010.5 -
22/08:30pm - - - - - SE 24 28 13 15 1010.7 1010.7 -
22/08:00pm - - - - - ESE 20 28 11 15 1010.9 1010.9 -
22/07:30pm - - - - - SE 26 32 14 17 1010.6 1010.6 -
22/07:00pm - - - - - SE 17 22 9 12 1011.3 1011.3 -
22/06:30pm - - - - - ESE 24 30 13 16 1011.2 1011.2 -
22/06:00pm - - - - - ESE 19 20 10 11 1012.3 1012.3 -
22/05:30pm - - - - - ESE 20 26 11 14 1012.5 1012.5 -
22/05:00pm - - - - - ESE 20 28 11 15 1012.7 1012.7 -
22/04:30pm - - - - - ESE 28 35 15 19 1012.2 1012.2 -
22/04:00pm - - - - - ESE 26 32 14 17 1013.1 1013.1 -
22/03:30pm - - - - - ESE 22 28 12 15 1014.0 1014.0 -
22/03:00pm - - - - - ESE 26 32 14 17 1014.2 1014.2 -
22/02:30pm - - - - - ESE 28 32 15 17 1014.7 1014.7 -
22/02:00pm - - - - - ESE 26 32 14 17 1015.3 1015.3 -
22/01:30pm - - - - - ESE 24 30 13 16 1015.7 1015.7 -
22/01:00pm - - - - - ESE 22 26 12 14 1016.1 1016.1 -
22/12:30pm - - - - - ESE 24 30 13 16 1016.8 1016.8 -
22/12:00pm - - - - - ESE 24 30 13 16 1016.8 1016.8 -
22/11:30am - - - - - ESE 26 30 14 16 1016.8 1016.8 -
22/11:00am - - - - - ESE 26 32 14 17 1017.1 1017.1 -
22/10:30am - - - - - ESE 24 28 13 15 1017.5 1017.5 -
22/10:00am - - - - - ESE 20 26 11 14 1017.7 1017.7 -
22/09:30am - - - - - ESE 20 24 11 13 1017.7 1017.7 -
22/09:00am - - - - - SE 19 24 10 13 1017.7 1017.7 -
22/08:30am - - - - - SSE 13 15 7 8 1017.7 1017.7 -
22/08:00am - - - - - S 15 19 8 10 1017.5 1017.5 -
22/07:30am - - - - - S 13 13 7 7 1017.6 1017.6 -
22/07:00am - - - - - S 9 13 5 7 1017.5 1017.5 -
22/06:30am - - - - - S 11 13 6 7 1017.3 1017.3 -
22/06:00am - - - - - S 9 11 5 6 1017.2 1017.2 -
22/05:30am - - - - - SSW 9 11 5 6 1017.4 1017.4 -
22/05:00am - - - - - S 9 11 5 6 1017.0 1017.0 -
22/04:30am - - - - - SE 11 17 6 9 1017.3 1017.3 -
22/04:00am - - - - - SSE 7 13 4 7 1017.5 1017.5 -
22/03:30am - - - - - S 7 11 4 6 1017.5 1017.5 -
22/03:00am - - - - - S 9 11 5 6 1017.7 1017.7 -
22/02:30am - - - - - S 7 9 4 5 1017.7 1017.7 -
22/02:00am - - - - - S 7 9 4 5 1017.8 1017.8 -
22/01:30am - - - - - SSW 7 11 4 6 1017.8 1017.8 -
22/01:00am - - - - - SSW 11 13 6 7 1017.9 1017.9 -
22/12:30am - - - - - S 9 13 5 7 1018.0 1018.0 -
22/12:00am - - - - - SSW 6 7 3 4 1018.3 1018.3 -
 
Date/Time
EDT
Temp
°C
App
Temp
°C
Dew
Point
°C
Rel
Hum
%
Delta-T
°C
Wind Press
QNH
hPa
Press
MSL
hPa
Rain since
9am
mm
Dir  Spd
km/h
Gust
km/h
Spd
kts
Gust
kts
21/11:30pm - - - - - S 4 9 2 5 1018.2 1018.2 -
21/11:00pm - - - - - SSW 4 9 2 5 1018.2 1018.2 -
21/10:30pm - - - - - S 4 7 2 4 1018.1 1018.1 -
21/10:00pm - - - - - WNW 7 13 4 7 1017.9 1017.9 -
21/09:30pm - - - - - W 6 11 3 6 1017.5 1017.5 -
21/09:00pm - - - - - NW 9 13 5 7 1017.3 1017.3 -
21/08:30pm - - - - - WNW 11 19 6 10 1017.1 1017.1 -
21/08:00pm - - - - - WNW 15 22 8 12 1017.0 1017.0 -
21/07:30pm - - - - - NW 26 32 14 17 1016.7 1016.7 -
21/07:00pm - - - - - NW 28 35 15 19 1016.2 1016.2 -
21/06:30pm - - - - - NW 28 35 15 19 1016.0 1016.0 -
21/06:00pm - - - - - NW 30 37 16 20 1015.9 1015.9 -
21/05:30pm - - - - - NW 32 39 17 21 1016.0 1016.0 -
21/05:00pm - - - - - NW 33 41 18 22 1016.2 1016.2 -
21/04:30pm - - - - - NNW 30 37 16 20 1016.5 1016.5 -
21/04:00pm - - - - - NW 30 39 16 21 1016.4 1016.4 -
21/03:30pm - - - - - NNW 30 33 16 18 1016.6 1016.6 -
21/03:00pm - - - - - NNW 24 30 13 16 1016.8 1016.8 -
21/02:30pm - - - - - NNW 20 28 11 15 1017.3 1017.3 -
21/02:00pm - - - - - WNW 15 24 8 13 1017.4 1017.4 -
21/01:30pm - - - - - WSW 9 20 5 11 1017.8 1017.8 -
21/01:00pm - - - - - WSW 15 24 8 13 1017.9 1017.9 -
21/12:30pm - - - - - WSW 11 19 6 10 1017.9 1017.9 -
21/12:00pm - - - - - WSW 17 28 9 15 1018.1 1018.1 -
21/11:30am - - - - - WSW 13 26 7 14 1018.3 1018.3 -
21/11:00am - - - - - W 19 28 10 15 1018.4 1018.4 -
21/10:30am - - - - - WNW 17 30 9 16 1018.3 1018.3 -
21/10:00am - - - - - NW 13 22 7 12 1018.3 1018.3 -
21/09:30am - - - - - WNW 9 15 5 8 1018.3 1018.3 -
21/09:00am - - - - - SW 7 17 4 9 1017.9 1017.9 -
21/08:30am - - - - - SW 9 19 5 10 1017.6 1017.6 -
21/08:00am - - - - - WSW 7 19 4 10 1017.3 1017.3 -
21/07:30am - - - - - W 7 15 4 8 1017.0 1017.0 -
21/07:00am - - - - - W 9 15 5 8 1016.6 1016.6 -
21/06:30am - - - - - WNW 9 15 5 8 1015.8 1015.8 -
21/06:00am - - - - - W 6 9 3 5 1015.3 1015.3 -
21/05:30am - - - - - WNW 6 9 3 5 1015.2 1015.2 -

Other Formats:

Comma delimited format used in spreadsheet applications
http://www.bom.gov.au/fwo/IDT60801/IDT60801.95963.axf

JavaScript Object Notation format (JSON) in row-major order
http://www.bom.gov.au/fwo/IDT60801/IDT60801.95963.json